createdAt,value
2018-12-09T00:00:19.972Z,9.73
2018-12-09T00:02:55.678Z,9.23
2018-12-09T00:05:29.519Z,8.47
2018-12-09T00:08:03.938Z,11.30
2018-12-09T00:10:38.179Z,7.00
2018-12-09T00:13:19.049Z,9.10
2018-12-09T00:15:54.100Z,7.53
2018-12-09T00:18:29.434Z,5.27
2018-12-09T00:21:00.455Z,3.97
2018-12-09T00:23:31.458Z,4.77
2018-12-09T00:26:06.054Z,4.13
2018-12-09T00:28:40.956Z,4.07
2018-12-09T00:31:22.534Z,5.00
2018-12-09T00:33:59.293Z,5.63
2018-12-09T00:36:34.533Z,5.57
2018-12-09T00:39:10.385Z,7.17
2018-12-09T00:41:45.604Z,9.03
2018-12-09T00:44:21.284Z,9.40
2018-12-09T00:46:56.017Z,9.47
2018-12-09T00:49:27.924Z,10.30
2018-12-09T00:52:02.244Z,8.33
2018-12-09T00:54:34.565Z,9.47
2018-12-09T00:57:14.223Z,11.93
2018-12-09T00:59:48.565Z,10.97
2018-12-09T01:02:22.526Z,12.30
2018-12-09T01:04:54.024Z,11.50
2018-12-09T01:07:26.023Z,8.67
2018-12-09T01:10:00.611Z,11.70
2018-12-09T01:12:38.725Z,14.60
2018-12-09T01:15:10.084Z,7.13
2018-12-09T01:17:44.644Z,5.27
2018-12-09T01:20:18.564Z,8.37
2018-12-09T01:22:56.343Z,7.03
2018-12-09T01:25:30.179Z,7.00
2018-12-09T01:28:04.478Z,4.53
2018-12-09T01:30:38.278Z,5.43
2018-12-09T01:33:18.720Z,5.90
2018-12-09T01:35:50.578Z,5.57
2018-12-09T01:38:25.338Z,4.33
2018-12-09T01:40:56.558Z,6.40
2018-12-09T01:43:28.539Z,8.73
2018-12-09T01:46:02.954Z,6.33
2018-12-09T01:48:37.639Z,6.60
2018-12-09T01:51:11.560Z,7.53
2018-12-09T01:53:51.379Z,10.23
2018-12-09T01:56:25.279Z,5.33
2018-12-09T01:58:59.239Z,5.53
2018-12-09T02:01:37.141Z,7.20
2018-12-09T02:04:11.241Z,5.53
2018-12-09T02:06:45.539Z,4.97
2018-12-09T02:09:16.678Z,4.73
2018-12-09T02:11:52.039Z,5.13
2018-12-09T02:14:30.698Z,4.93
2018-12-09T02:17:08.106Z,3.97
2018-12-09T02:19:42.418Z,4.97
2018-12-09T02:22:21.618Z,4.10
2018-12-09T02:24:56.317Z,4.10
2018-12-09T02:27:31.838Z,4.33
2018-12-09T02:30:07.680Z,4.67
2018-12-09T02:32:41.583Z,5.03
2018-12-09T03:03:36.739Z,6.43
2018-12-09T03:06:11.538Z,5.00
2018-12-09T03:08:47.361Z,5.47
2018-12-09T03:11:22.200Z,7.93
2018-12-09T03:13:56.698Z,4.77
2018-12-09T03:16:28.099Z,3.87
2018-12-09T03:19:02.753Z,3.50
2018-12-09T03:21:36.699Z,3.90
2018-12-09T03:24:10.730Z,3.83
2018-12-09T03:26:48.359Z,3.80
2018-12-09T03:29:23.878Z,3.47
2018-12-09T03:31:58.399Z,3.80
2018-12-09T03:34:36.859Z,3.83
2018-12-09T03:37:12.280Z,3.87
2018-12-09T03:39:54.218Z,3.87
2018-12-09T03:42:26.320Z,4.07
2018-12-09T03:45:01.097Z,5.00
2018-12-09T03:47:32.478Z,4.23
2018-12-09T03:50:05.658Z,3.97
2018-12-09T03:52:40.438Z,3.97
2018-12-09T03:55:15.218Z,3.90
2018-12-09T03:57:49.120Z,4.37
2018-12-09T04:00:22.873Z,3.40
2018-12-09T04:02:57.282Z,3.43
2018-12-09T04:05:31.103Z,4.23
2018-12-09T04:08:08.924Z,4.53
2018-12-09T04:10:42.884Z,4.60
2018-12-09T04:13:17.123Z,3.83
2018-12-09T04:15:51.619Z,4.67
2018-12-09T04:18:23.362Z,4.53
2018-12-09T04:20:58.040Z,3.80
2018-12-09T04:23:29.500Z,4.53
2018-12-09T04:26:04.337Z,3.80
2018-12-09T04:28:39.980Z,4.03
2018-12-09T04:31:11.300Z,5.10
2018-12-09T04:33:47.519Z,3.73
2018-12-09T04:36:19.059Z,3.27
2018-12-09T04:38:56.898Z,4.07
2018-12-09T04:41:30.698Z,4.57
2018-12-09T04:44:06.239Z,5.83
2018-12-09T04:46:40.539Z,3.60
2018-12-09T04:49:14.557Z,3.40
2018-12-09T04:51:53.198Z,4.33
2018-12-09T04:54:27.507Z,6.97
2018-12-09T04:57:02.019Z,4.47
2018-12-09T04:59:40.897Z,4.47
2018-12-09T05:02:15.060Z,4.67
2018-12-09T05:04:46.357Z,3.67
2018-12-09T05:07:21.066Z,3.53
2018-12-09T05:09:52.298Z,4.60
2018-12-09T05:12:26.879Z,4.70
2018-12-09T05:15:00.760Z,3.37
2018-12-09T05:17:49.439Z,3.47
2018-12-09T05:20:24.559Z,4.17
2018-12-09T05:22:58.779Z,3.00
2018-12-09T05:25:30.881Z,4.13
2018-12-09T05:28:05.118Z,4.97
2018-12-09T05:30:36.459Z,3.57
2018-12-09T05:33:10.719Z,4.37
2018-12-09T05:35:45.279Z,2.90
2018-12-09T05:38:19.519Z,3.27
2018-12-09T05:40:54.383Z,4.90
2018-12-09T05:43:33.747Z,3.30
2018-12-09T05:46:09.280Z,4.50
2018-12-09T05:48:43.200Z,3.00
2018-12-09T05:51:17.138Z,2.90
2018-12-09T05:53:53.157Z,3.53
2018-12-09T05:56:33.538Z,3.00
2018-12-09T05:59:08.158Z,3.27
2018-12-09T06:01:46.004Z,3.43
2018-12-09T06:04:20.224Z,2.87
2018-12-09T06:06:55.044Z,4.73
2018-12-09T06:09:29.823Z,3.60
2018-12-09T06:12:03.792Z,3.20
2018-12-09T06:14:38.724Z,4.30
2018-12-09T06:17:12.864Z,6.63
2018-12-09T06:19:46.844Z,3.93
2018-12-09T06:22:20.804Z,4.77
2018-12-09T06:24:52.804Z,3.37
2018-12-09T06:27:27.262Z,3.50
2018-12-09T06:29:58.105Z,4.17
2018-12-09T06:32:31.899Z,4.63
2018-12-09T06:35:07.202Z,4.53
2018-12-09T06:37:39.480Z,3.43
2018-12-09T06:40:11.241Z,3.30
2018-12-09T06:42:46.407Z,3.93
2018-12-09T06:45:17.901Z,3.53
2018-12-09T06:47:49.982Z,3.47
2018-12-09T06:50:22.401Z,4.30
2018-12-09T06:52:56.521Z,3.73
2018-12-09T06:55:34.699Z,5.17
2018-12-09T06:58:09.138Z,4.60
2018-12-09T07:00:44.179Z,4.40
2018-12-09T07:03:18.119Z,4.43
2018-12-09T07:05:54.820Z,5.23
2018-12-09T07:08:26.740Z,4.63
2018-12-09T07:11:01.761Z,4.40
2018-12-09T07:13:37.941Z,4.70
2018-12-09T07:16:12.659Z,3.60
2018-12-09T07:26:34.539Z,7.90
2018-12-09T07:29:08.760Z,5.37
2018-12-09T07:31:43.019Z,7.47
2018-12-09T07:34:18.360Z,6.80
2018-12-09T07:36:56.679Z,6.90
2018-12-09T07:39:31.061Z,7.23
2018-12-09T07:42:05.440Z,4.43
2018-12-09T07:44:37.100Z,4.30
2018-12-09T07:47:08.561Z,4.97
2018-12-09T07:49:42.961Z,5.27
2018-12-09T07:52:16.961Z,4.40
2018-12-09T07:54:51.823Z,4.03
2018-12-09T07:57:25.621Z,6.10
2018-12-09T07:59:57.217Z,5.63
2018-12-09T08:02:33.625Z,5.03
2018-12-09T08:05:08.479Z,4.23
2018-12-09T08:07:46.260Z,4.10
2018-12-09T08:10:21.039Z,3.93
2018-12-09T08:12:56.759Z,4.83
2018-12-09T08:15:31.159Z,4.37
2018-12-09T08:18:02.559Z,5.53
2018-12-09T08:20:34.566Z,4.77
2018-12-09T08:23:06.579Z,3.00
2018-12-09T08:25:38.159Z,3.93
2018-12-09T08:28:13.079Z,4.77
2018-12-09T08:30:48.299Z,4.10
2018-12-09T08:33:23.180Z,4.33
2018-12-09T08:36:00.859Z,4.27
2018-12-09T08:38:34.999Z,5.40
2018-12-09T08:41:10.718Z,5.23
2018-12-09T08:43:42.477Z,4.63
2018-12-09T08:46:20.539Z,5.80
2018-12-09T08:48:52.157Z,7.00
2018-12-09T08:51:28.597Z,4.30
2018-12-09T08:54:10.257Z,3.57
2018-12-09T08:56:44.118Z,5.60
2018-12-09T08:59:18.379Z,5.17
2018-12-09T09:01:52.186Z,5.87
2018-12-09T09:04:26.326Z,8.40
2018-12-09T09:06:57.918Z,5.63
2018-12-09T09:09:32.440Z,4.60
2018-12-09T09:12:03.440Z,4.77
2018-12-09T09:14:41.160Z,12.47
2018-12-09T09:17:14.882Z,15.00
2018-12-09T09:19:48.945Z,14.37
2018-12-09T09:22:20.803Z,11.37
2018-12-09T09:24:52.321Z,14.77
2018-12-09T09:27:24.318Z,14.50
2018-12-09T09:40:18.937Z,8.83
2018-12-09T09:48:02.126Z,4.93
2018-12-09T09:50:45.100Z,3.97
2018-12-09T09:53:15.079Z,5.43
2018-12-09T09:55:49.529Z,4.07
2018-12-09T09:58:24.507Z,4.30
2018-12-09T10:01:00.041Z,5.43
2018-12-09T10:03:34.606Z,4.97
2018-12-09T10:08:52.378Z,5.67
2018-12-09T10:11:27.118Z,6.00
2018-12-09T10:13:58.830Z,6.17
2018-12-09T10:16:33.585Z,5.30
2018-12-09T10:19:11.793Z,4.40
2018-12-09T10:21:46.158Z,4.67
2018-12-09T10:24:21.344Z,6.30
2018-12-09T10:26:56.996Z,6.30
2018-12-09T10:29:31.301Z,5.93
2018-12-09T10:32:09.218Z,6.90
2018-12-09T10:34:41.578Z,5.27
2018-12-09T10:37:14.882Z,3.90
2018-12-09T10:39:49.211Z,3.30
2018-12-09T10:42:23.618Z,5.33
2018-12-09T10:44:59.822Z,5.17
2018-12-09T10:47:36.538Z,8.83
2018-12-09T10:50:17.357Z,7.70
2018-12-09T10:52:51.699Z,2.93
2018-12-09T10:55:25.160Z,3.80
2018-12-09T10:57:59.047Z,4.20
2018-12-09T11:00:40.213Z,3.80
2018-12-09T11:06:20.600Z,4.00
2018-12-09T11:08:56.480Z,11.20
2018-12-09T11:11:32.092Z,10.87
2018-12-09T11:14:09.790Z,9.73
2018-12-09T11:16:41.896Z,9.70
2018-12-09T11:19:20.131Z,9.97
2018-12-09T11:21:55.107Z,9.83
2018-12-09T11:24:33.787Z,9.80
2018-12-09T11:27:05.860Z,11.73
2018-12-09T11:29:40.746Z,11.33
2018-12-09T11:32:15.743Z,11.07
2018-12-09T11:34:51.271Z,10.23
2018-12-09T11:37:27.438Z,10.90
2018-12-09T11:40:02.498Z,10.27
2018-12-09T11:42:42.763Z,10.00
2018-12-09T11:45:18.740Z,9.70
2018-12-09T11:47:54.028Z,9.13
2018-12-09T11:50:40.809Z,8.60
2018-12-09T11:53:13.610Z,17.40
2018-12-09T11:55:47.028Z,9.10
2018-12-09T11:58:25.590Z,4.20
2018-12-09T12:01:02.168Z,5.70
2018-12-09T12:03:33.848Z,4.87
2018-12-09T12:06:06.092Z,5.37
2018-12-09T12:08:47.157Z,5.93
2018-12-09T12:14:34.167Z,11.60
2018-12-09T12:17:05.936Z,11.43
2018-12-09T12:19:42.487Z,11.27
2018-12-09T12:22:17.889Z,10.73
2018-12-09T12:24:54.799Z,10.67
2018-12-09T12:27:29.039Z,11.97
2018-12-09T12:30:03.259Z,15.80
2018-12-09T12:32:38.719Z,14.27
2018-12-09T12:35:11.908Z,16.03
2018-12-09T12:37:45.468Z,17.13
2018-12-09T12:40:17.527Z,12.03
2018-12-09T12:42:53.779Z,15.07
2018-12-09T12:45:35.205Z,10.43
2018-12-09T12:48:09.828Z,10.90
2018-12-09T12:50:45.145Z,10.87
2018-12-09T12:53:20.323Z,12.10
2018-12-09T12:55:55.268Z,11.30
2018-12-09T12:58:30.542Z,10.63
2018-12-09T13:01:05.622Z,13.83
2018-12-09T13:03:38.886Z,10.27
2018-12-09T13:06:10.606Z,9.20
2018-12-09T13:08:45.223Z,8.10
2018-12-09T13:11:19.479Z,9.27
2018-12-09T13:14:02.539Z,8.27
2018-12-09T13:16:41.361Z,11.03
2018-12-09T13:19:13.908Z,12.20
2018-12-09T13:21:53.424Z,11.63
2018-12-09T13:24:27.903Z,8.87
2018-12-09T13:27:02.283Z,8.77
2018-12-09T13:29:33.546Z,9.10
2018-12-09T13:32:08.145Z,7.57
2018-12-09T13:34:39.464Z,5.93
2018-12-09T13:37:17.978Z,7.93
2018-12-09T13:39:50.761Z,5.63
2018-12-09T13:42:28.663Z,5.97
2018-12-09T13:45:05.534Z,5.67
2018-12-09T13:47:36.939Z,7.10
2018-12-09T13:50:15.662Z,5.60
2018-12-09T13:52:56.807Z,6.00
2018-12-09T13:55:30.907Z,9.17
2018-12-09T13:58:11.468Z,8.33
2018-12-09T14:00:46.949Z,10.30
2018-12-09T14:03:20.882Z,10.13
2018-12-09T14:05:59.106Z,12.17
2018-12-09T14:08:34.200Z,16.53
2018-12-09T14:11:16.141Z,12.93
2018-12-09T14:13:52.102Z,11.47
2018-12-09T14:16:33.630Z,10.47
2018-12-09T14:19:09.639Z,9.53
2018-12-09T14:21:45.510Z,7.77
2018-12-09T14:24:19.671Z,7.17
2018-12-09T14:26:51.062Z,7.07
2018-12-09T14:29:25.995Z,7.43
2018-12-09T14:32:00.649Z,7.67
2018-12-09T14:34:35.543Z,8.47
2018-12-09T14:37:14.705Z,5.23
2018-12-09T14:39:46.119Z,5.90
2018-12-09T14:42:20.861Z,6.70
2018-12-09T14:44:59.705Z,5.03
2018-12-09T14:47:31.536Z,8.50
2018-12-09T14:50:08.530Z,8.60
2018-12-09T14:52:44.744Z,8.93
2018-12-09T14:55:21.638Z,8.33
2018-12-09T14:57:52.905Z,9.30
2018-12-09T15:00:32.738Z,9.60
2018-12-09T15:03:07.562Z,8.23
2018-12-09T15:05:39.073Z,10.03
2018-12-09T15:08:10.062Z,9.23
2018-12-09T15:10:43.851Z,9.43
2018-12-09T15:13:15.204Z,16.67
2018-12-09T15:15:50.447Z,15.37
2018-12-09T15:18:25.870Z,14.23
2018-12-09T15:21:00.654Z,9.00
2018-12-09T15:23:32.982Z,18.60
2018-12-09T15:26:05.034Z,10.23
2018-12-09T15:28:44.210Z,12.23
2018-12-09T15:31:19.981Z,11.20
2018-12-09T15:33:55.864Z,12.30
2018-12-09T15:39:28.679Z,7.13
2018-12-09T15:42:04.602Z,9.60
2018-12-09T15:44:42.166Z,8.57
2018-12-09T15:47:16.351Z,7.47
2018-12-09T15:49:52.628Z,6.87
2018-12-09T15:52:35.315Z,8.20
2018-12-09T15:55:16.746Z,8.63
2018-12-09T15:57:53.299Z,8.23
2018-12-09T16:00:31.093Z,7.47
2018-12-09T16:03:05.554Z,6.83
2018-12-09T16:05:43.566Z,7.57
2018-12-09T16:08:19.061Z,9.13
2018-12-09T16:10:54.026Z,8.53
2018-12-09T16:13:25.347Z,7.63
2018-12-09T16:15:59.526Z,7.37
2018-12-09T16:18:34.398Z,6.90
2018-12-09T16:21:12.076Z,8.37
2018-12-09T16:23:46.863Z,7.40
2018-12-09T16:26:18.606Z,7.93
2018-12-09T16:29:03.585Z,8.53
2018-12-09T16:31:38.924Z,9.30
2018-12-09T16:34:12.847Z,8.60
2018-12-09T16:36:52.126Z,6.63
2018-12-09T16:39:24.817Z,6.00
2018-12-09T16:41:58.727Z,6.63
2018-12-09T16:44:32.738Z,6.50
2018-12-09T16:47:07.529Z,8.73
2018-12-09T16:49:41.830Z,10.37
2018-12-09T16:52:14.012Z,7.43
2018-12-09T16:54:52.250Z,7.67
2018-12-09T16:57:26.118Z,7.63
2018-12-09T17:00:00.493Z,11.50
2018-12-09T17:02:37.695Z,7.87
2018-12-09T17:05:15.919Z,8.23
2018-12-09T17:07:49.996Z,7.87
2018-12-09T17:10:35.182Z,11.57
2018-12-09T17:13:09.088Z,9.77
2018-12-09T17:15:43.907Z,8.03
2018-12-09T17:18:17.653Z,10.23
2018-12-09T17:20:53.692Z,8.63
2018-12-09T17:23:27.449Z,12.60
2018-12-09T17:26:01.747Z,8.47
2018-12-09T17:28:38.004Z,8.50
2018-12-09T17:31:17.711Z,9.10
2018-12-09T17:34:01.892Z,10.27
2018-12-09T17:36:36.204Z,9.07
2018-12-09T17:39:12.957Z,9.07
2018-12-09T17:41:48.604Z,7.70
2018-12-09T17:44:22.518Z,10.00
2018-12-09T17:46:54.971Z,7.27
2018-12-09T17:49:26.427Z,7.77
2018-12-09T17:51:59.252Z,9.27
2018-12-09T17:54:32.996Z,9.53
2018-12-09T17:57:07.888Z,7.87
2018-12-09T17:59:41.982Z,8.53
2018-12-09T18:02:16.251Z,8.43
2018-12-09T18:04:51.050Z,9.67
2018-12-09T18:07:23.326Z,10.33
2018-12-09T18:09:55.266Z,8.33
2018-12-09T18:12:28.002Z,14.10
2018-12-09T18:15:02.512Z,18.10
2018-12-09T18:17:36.527Z,13.03
2018-12-09T18:20:07.745Z,10.23
2018-12-09T18:22:43.564Z,9.60
2018-12-09T18:25:18.486Z,9.97
2018-12-09T18:27:58.091Z,9.83
2018-12-09T18:30:44.017Z,11.37
2018-12-09T18:33:26.107Z,10.70
2018-12-09T18:36:04.769Z,11.33
2018-12-09T18:38:46.041Z,11.03
2018-12-09T18:41:20.844Z,13.13
2018-12-09T18:43:56.164Z,13.07
2018-12-09T18:46:31.366Z,12.43
2018-12-09T18:49:07.730Z,11.97
2018-12-09T18:51:47.289Z,13.73
2018-12-09T18:54:21.770Z,14.93
2018-12-09T18:56:58.803Z,13.13
2018-12-09T18:59:31.321Z,15.20
2018-12-09T19:02:07.070Z,16.37
2018-12-09T19:04:43.321Z,14.30
2018-12-09T19:07:18.423Z,15.57
2018-12-09T19:09:50.964Z,14.47
2018-12-09T19:12:29.584Z,14.43
2018-12-09T19:15:02.160Z,14.20
2018-12-09T19:17:37.285Z,13.83
2018-12-09T19:20:13.169Z,13.60
2018-12-09T19:22:48.956Z,11.90
2018-12-09T19:25:24.165Z,13.23
2018-12-09T19:28:00.429Z,10.07
2018-12-09T19:30:48.151Z,9.87
2018-12-09T19:33:18.630Z,9.93
2018-12-09T19:35:53.385Z,8.90
2018-12-09T19:38:40.014Z,9.80
2018-12-09T19:41:13.310Z,8.80
2018-12-09T19:43:52.671Z,7.97
2018-12-09T19:46:28.968Z,8.43
2018-12-09T19:49:06.262Z,8.57
2018-12-09T19:51:45.845Z,8.93
2018-12-09T19:54:21.470Z,7.90
2018-12-09T19:56:59.532Z,14.50
2018-12-09T19:59:34.407Z,26.30
2018-12-09T20:02:08.801Z,24.63
2018-12-09T20:04:43.261Z,25.37
2018-12-09T20:07:18.576Z,28.00
2018-12-09T20:09:59.110Z,26.57
2018-12-09T20:12:38.535Z,23.27
2018-12-09T20:15:14.248Z,25.93
2018-12-09T20:17:49.554Z,20.67
2018-12-09T20:20:22.594Z,20.10
2018-12-09T20:22:58.355Z,16.47
2018-12-09T20:25:33.098Z,19.00
2018-12-09T20:28:09.389Z,21.73
2018-12-09T20:30:45.343Z,14.93
2018-12-09T20:33:26.093Z,12.73
2018-12-09T20:36:02.021Z,17.63
2018-12-09T20:38:42.702Z,11.90
2018-12-09T20:41:17.098Z,11.80
2018-12-09T20:43:57.738Z,10.67
2018-12-09T20:46:34.898Z,11.23
2018-12-09T20:49:15.249Z,7.80
2018-12-09T20:51:49.788Z,8.07
2018-12-09T20:54:22.558Z,8.77
2018-12-09T20:57:03.600Z,11.00
2018-12-09T20:59:45.368Z,8.30
2018-12-09T21:02:22.169Z,9.23
2018-12-09T21:04:57.307Z,9.07
2018-12-09T21:07:45.047Z,7.87
2018-12-09T21:10:21.339Z,8.10
2018-12-09T21:12:55.910Z,12.40
2018-12-09T21:15:28.756Z,23.93
2018-12-09T21:18:04.384Z,27.33
2018-12-09T21:20:47.564Z,12.60
2018-12-09T21:23:20.730Z,11.63
2018-12-09T21:25:53.791Z,11.00
2018-12-09T21:28:28.552Z,12.53
2018-12-09T21:31:04.426Z,10.80
2018-12-09T21:33:40.322Z,11.80
2018-12-09T21:36:14.383Z,10.60
2018-12-09T21:38:49.934Z,14.00
2018-12-09T21:59:26.898Z,11.43
2018-12-09T22:02:03.184Z,10.87
2018-12-09T22:04:38.702Z,11.97
2018-12-09T22:07:12.207Z,10.67
2018-12-09T22:09:51.318Z,12.33
2018-12-09T22:12:29.740Z,12.93
2018-12-09T22:15:02.147Z,10.73
2018-12-09T22:17:36.780Z,13.97
2018-12-09T22:20:12.225Z,11.07
2018-12-09T22:22:51.426Z,10.90
2018-12-09T22:25:23.822Z,10.90
2018-12-09T22:28:04.785Z,9.67
2018-12-09T22:30:44.918Z,10.33
2018-12-09T22:33:20.314Z,11.90
2018-12-09T22:35:56.163Z,9.27
2018-12-09T22:38:31.240Z,10.33
2018-12-09T22:41:07.341Z,11.77
2018-12-09T22:43:43.541Z,9.67
2018-12-09T22:46:19.642Z,11.63
2018-12-09T22:48:55.299Z,11.57
2018-12-09T22:51:31.578Z,12.53
2018-12-09T22:54:06.554Z,10.37
2018-12-09T22:56:38.084Z,10.57
2018-12-09T22:59:13.072Z,10.50
2018-12-09T23:05:01.046Z,6.93
2018-12-09T23:07:41.227Z,8.73
2018-12-09T23:10:21.958Z,7.93
2018-12-09T23:12:57.061Z,8.90
2018-12-09T23:15:39.222Z,11.10
2018-12-09T23:18:14.166Z,9.10
2018-12-09T23:20:48.085Z,11.50
2018-12-09T23:23:28.267Z,9.33
2018-12-09T23:26:03.473Z,8.73
2018-12-09T23:28:38.036Z,8.20
2018-12-09T23:31:13.565Z,8.47
2018-12-09T23:33:49.605Z,9.90
2018-12-09T23:36:22.131Z,12.20
2018-12-09T23:38:58.863Z,10.73
2018-12-09T23:41:34.322Z,12.70
2018-12-09T23:44:10.420Z,11.10
2018-12-09T23:46:45.994Z,13.97
2018-12-09T23:49:20.767Z,11.83
2018-12-09T23:51:55.527Z,12.97
2018-12-09T23:54:29.795Z,17.20
2018-12-09T23:57:05.040Z,13.57
2018-12-09T23:59:37.105Z,13.67
